createdAt,value
2022-12-15T00:00:27.915Z,34.83
2022-12-15T00:00:59.468Z,35.13
2022-12-15T00:01:30.941Z,35.12
2022-12-15T00:02:02.333Z,35.40
2022-12-15T00:02:33.816Z,34.74
2022-12-15T00:03:05.443Z,35.39
2022-12-15T00:03:37.412Z,35.41
2022-12-15T00:04:09.042Z,35.04
2022-12-15T00:04:40.457Z,34.83
2022-12-15T00:05:11.850Z,35.25
2022-12-15T00:05:43.239Z,35.06
2022-12-15T00:06:21.315Z,34.84
2022-12-15T00:06:53.081Z,34.85
2022-12-15T00:07:24.536Z,35.25
2022-12-15T00:07:55.930Z,35.03
2022-12-15T00:08:27.349Z,35.36
2022-12-15T00:08:58.748Z,35.11
2022-12-15T00:09:31.070Z,35.14
2022-12-15T00:10:02.562Z,34.81
2022-12-15T00:10:33.984Z,34.56
2022-12-15T00:11:05.393Z,35.11
2022-12-15T00:11:36.778Z,35.02
2022-12-15T00:12:08.188Z,35.14
2022-12-15T00:12:39.572Z,35.19
2022-12-15T00:13:10.964Z,35.11
2022-12-15T00:13:42.356Z,34.92
2022-12-15T00:14:13.771Z,35.13
2022-12-15T00:14:45.173Z,35.17
2022-12-15T00:15:16.558Z,35.17
2022-12-15T00:15:48.051Z,34.80
2022-12-15T00:16:19.570Z,35.50
2022-12-15T00:16:51.032Z,34.94
2022-12-15T00:17:22.542Z,35.16
2022-12-15T00:17:53.930Z,35.04
2022-12-15T00:18:25.319Z,34.75
2022-12-15T00:18:56.703Z,34.74
2022-12-15T00:19:28.136Z,35.01
2022-12-15T00:19:59.527Z,35.08
2022-12-15T00:20:30.923Z,35.20
2022-12-15T00:21:02.325Z,35.35
2022-12-15T00:21:33.724Z,35.25
2022-12-15T00:22:05.111Z,35.29
2022-12-15T00:22:36.621Z,35.16
2022-12-15T00:23:08.018Z,35.15
2022-12-15T00:23:39.422Z,34.91
2022-12-15T00:24:10.806Z,34.82
2022-12-15T00:24:42.212Z,35.32
2022-12-15T00:25:13.595Z,35.14
2022-12-15T00:25:44.980Z,35.31
2022-12-15T00:26:16.368Z,35.03
2022-12-15T00:26:47.760Z,35.30
2022-12-15T00:27:19.151Z,34.63
2022-12-15T00:27:50.667Z,34.91
2022-12-15T00:28:22.053Z,34.87
2022-12-15T00:28:53.539Z,35.11
2022-12-15T00:29:24.942Z,35.09
2022-12-15T00:29:56.399Z,35.00
2022-12-15T00:30:27.796Z,35.21
2022-12-15T00:31:02.555Z,34.87
2022-12-15T00:31:34.319Z,34.89
2022-12-15T00:32:05.755Z,35.39
2022-12-15T00:32:37.143Z,35.45
2022-12-15T00:33:08.611Z,35.11
2022-12-15T00:33:40.000Z,34.89
2022-12-15T00:34:11.395Z,35.15
2022-12-15T00:34:42.803Z,35.24
2022-12-15T00:35:14.191Z,35.14
2022-12-15T00:35:45.583Z,35.23
2022-12-15T00:36:16.970Z,35.46
2022-12-15T00:36:49.887Z,35.52
2022-12-15T00:37:21.484Z,35.10
2022-12-15T00:37:52.880Z,35.28
2022-12-15T00:38:24.324Z,35.26
2022-12-15T00:39:00.459Z,35.09
2022-12-15T00:39:34.843Z,34.97
2022-12-15T00:40:06.237Z,35.27
2022-12-15T00:40:37.645Z,35.41
2022-12-15T00:41:09.049Z,34.93
2022-12-15T00:41:40.446Z,34.91
2022-12-15T00:42:11.860Z,35.17
2022-12-15T00:42:43.248Z,35.15
2022-12-15T00:43:14.635Z,35.25
2022-12-15T00:43:46.187Z,35.21
2022-12-15T00:44:20.773Z,34.91
2022-12-15T00:44:52.415Z,35.46
2022-12-15T00:45:23.800Z,34.93
2022-12-15T00:45:55.190Z,34.99
2022-12-15T00:46:26.633Z,35.47
2022-12-15T00:46:58.129Z,35.38
2022-12-15T00:47:29.613Z,35.46
2022-12-15T00:48:01.011Z,35.08
2022-12-15T00:48:32.419Z,35.39
2022-12-15T00:49:03.918Z,35.51
2022-12-15T00:49:35.312Z,35.09
2022-12-15T00:50:06.714Z,35.09
2022-12-15T00:50:38.116Z,35.36
2022-12-15T00:51:09.534Z,35.16
2022-12-15T00:51:40.926Z,35.11
2022-12-15T00:52:12.320Z,35.08
2022-12-15T00:52:43.715Z,34.82
2022-12-15T00:53:15.117Z,34.69
2022-12-15T00:53:46.533Z,35.37
2022-12-15T00:54:18.346Z,34.80
2022-12-15T00:54:49.767Z,35.16
2022-12-15T00:55:21.164Z,34.83
2022-12-15T00:55:52.556Z,35.14
2022-12-15T00:56:23.944Z,35.29
2022-12-15T00:56:55.335Z,34.73
2022-12-15T00:57:26.719Z,35.04
2022-12-15T00:57:58.133Z,35.34
2022-12-15T00:58:29.525Z,35.39
2022-12-15T00:59:00.909Z,35.23
2022-12-15T00:59:32.441Z,35.12
2022-12-15T01:00:03.841Z,34.99
2022-12-15T01:00:35.230Z,35.22
2022-12-15T01:01:06.621Z,35.30
2022-12-15T01:01:38.119Z,35.06
2022-12-15T01:02:09.823Z,35.12
2022-12-15T01:02:41.415Z,35.21
2022-12-15T01:03:12.993Z,34.96
2022-12-15T01:03:44.542Z,35.52
2022-12-15T01:04:16.203Z,35.04
2022-12-15T01:04:47.716Z,35.42
2022-12-15T01:05:19.107Z,35.20
2022-12-15T01:05:50.511Z,35.08
2022-12-15T01:06:21.905Z,35.24
2022-12-15T01:06:53.299Z,34.94
2022-12-15T01:07:24.694Z,35.30
2022-12-15T01:07:56.113Z,35.12
2022-12-15T01:08:27.514Z,35.31
2022-12-15T01:08:58.916Z,35.37
2022-12-15T01:09:30.313Z,35.05
2022-12-15T01:10:01.783Z,35.15
2022-12-15T01:10:33.200Z,35.16
2022-12-15T01:11:04.594Z,35.23
2022-12-15T01:11:35.991Z,35.22
2022-12-15T01:12:07.376Z,35.14
2022-12-15T01:12:38.769Z,35.06
2022-12-15T01:13:10.168Z,35.26
2022-12-15T01:13:41.555Z,34.97
2022-12-15T01:14:12.959Z,35.34
2022-12-15T01:14:44.349Z,34.80
2022-12-15T01:15:15.831Z,34.94
2022-12-15T01:15:47.249Z,34.97
2022-12-15T01:16:18.740Z,35.21
2022-12-15T01:16:50.191Z,35.58
2022-12-15T01:17:21.599Z,35.19
2022-12-15T01:17:52.982Z,34.99
2022-12-15T01:18:24.375Z,35.40
2022-12-15T01:18:55.766Z,35.49
2022-12-15T01:19:27.160Z,35.36
2022-12-15T01:19:58.573Z,35.44
2022-12-15T01:20:29.988Z,35.13
2022-12-15T01:21:01.392Z,35.00
2022-12-15T01:21:32.823Z,35.15
2022-12-15T01:22:04.213Z,35.13
2022-12-15T01:22:35.618Z,35.45
2022-12-15T01:23:07.024Z,35.01
2022-12-15T01:23:38.411Z,35.00
2022-12-15T01:24:09.799Z,35.36
2022-12-15T01:24:41.216Z,35.24
2022-12-15T01:25:12.627Z,35.21
2022-12-15T01:25:44.155Z,35.35
2022-12-15T01:26:21.007Z,35.01
2022-12-15T01:26:52.404Z,35.11
2022-12-15T01:27:23.797Z,35.21
2022-12-15T01:27:55.205Z,34.84
2022-12-15T01:28:26.627Z,35.05
2022-12-15T01:28:58.021Z,35.18
2022-12-15T01:29:29.432Z,35.05
2022-12-15T01:30:00.820Z,35.02
2022-12-15T01:30:32.216Z,35.14
2022-12-15T01:31:03.800Z,35.40
2022-12-15T01:31:35.330Z,35.35
2022-12-15T01:32:06.759Z,35.16
2022-12-15T01:32:42.695Z,35.44
2022-12-15T01:33:17.145Z,35.43
2022-12-15T01:33:48.534Z,35.52
2022-12-15T01:34:19.972Z,35.17
2022-12-15T01:34:51.405Z,35.20
2022-12-15T01:35:22.798Z,34.92
2022-12-15T01:35:54.184Z,35.35
2022-12-15T01:36:25.681Z,35.35
2022-12-15T01:36:57.093Z,35.08
2022-12-15T01:37:28.484Z,34.94
2022-12-15T01:37:59.869Z,35.16
2022-12-15T01:38:31.320Z,35.16
2022-12-15T01:39:02.729Z,34.98
2022-12-15T01:39:34.119Z,35.00
2022-12-15T01:40:05.509Z,35.06
2022-12-15T01:40:36.899Z,34.83
2022-12-15T01:41:08.306Z,35.13
2022-12-15T01:41:39.857Z,35.02
2022-12-15T01:42:11.268Z,34.83
2022-12-15T01:42:42.735Z,35.02
2022-12-15T01:43:14.146Z,35.32
2022-12-15T01:43:45.537Z,34.84
2022-12-15T01:44:16.957Z,35.08
2022-12-15T01:44:48.351Z,35.30
2022-12-15T01:45:19.739Z,35.08
2022-12-15T01:45:51.147Z,34.96
2022-12-15T01:46:22.619Z,35.37
2022-12-15T01:46:54.169Z,34.89
2022-12-15T01:47:25.672Z,34.74
2022-12-15T01:47:57.069Z,35.33
2022-12-15T01:48:28.459Z,34.69
2022-12-15T01:48:59.843Z,35.31
2022-12-15T01:49:31.233Z,34.83
2022-12-15T01:50:02.631Z,35.01
2022-12-15T01:50:34.023Z,35.35
2022-12-15T01:51:05.430Z,35.36
2022-12-15T01:51:36.845Z,35.12
2022-12-15T01:52:08.300Z,35.09
2022-12-15T01:52:39.688Z,35.09
2022-12-15T01:53:11.083Z,35.24
2022-12-15T01:53:42.472Z,35.12
2022-12-15T01:54:13.854Z,35.03
2022-12-15T01:54:45.251Z,34.89
2022-12-15T01:55:19.952Z,35.31
2022-12-15T01:55:51.355Z,35.07
2022-12-15T01:56:22.764Z,34.87
2022-12-15T01:56:54.169Z,35.36
2022-12-15T01:57:25.558Z,35.02
2022-12-15T01:57:56.969Z,35.22
2022-12-15T01:58:28.352Z,35.05
2022-12-15T01:58:59.750Z,34.87
2022-12-15T01:59:31.150Z,34.79
2022-12-15T02:00:02.547Z,35.12
2022-12-15T02:00:34.014Z,35.25
2022-12-15T02:01:05.531Z,35.17
2022-12-15T02:01:37.055Z,34.91
2022-12-15T02:02:08.730Z,35.30
2022-12-15T02:02:40.755Z,35.01
2022-12-15T02:03:12.370Z,34.92
2022-12-15T02:03:43.862Z,35.14
2022-12-15T02:04:15.276Z,34.76
2022-12-15T02:04:46.669Z,35.09
2022-12-15T02:05:18.057Z,35.20
2022-12-15T02:05:49.471Z,34.81
2022-12-15T02:06:20.861Z,35.35
2022-12-15T02:06:52.267Z,35.37
2022-12-15T02:07:23.670Z,35.35
2022-12-15T02:07:55.054Z,35.25
2022-12-15T02:08:26.447Z,35.08
2022-12-15T02:08:57.836Z,35.31
2022-12-15T02:09:29.219Z,35.15
2022-12-15T02:10:00.611Z,35.13
2022-12-15T02:10:32.006Z,35.42
2022-12-15T02:11:03.403Z,35.40
2022-12-15T02:11:34.799Z,35.40
2022-12-15T02:12:06.261Z,35.41
2022-12-15T02:12:37.665Z,35.04
2022-12-15T02:13:09.058Z,35.21
2022-12-15T02:13:40.443Z,35.36
2022-12-15T02:14:11.833Z,35.25
2022-12-15T02:14:43.232Z,35.00
2022-12-15T02:15:14.635Z,35.18
2022-12-15T02:15:46.044Z,34.97
2022-12-15T02:16:17.489Z,35.16
2022-12-15T02:16:48.954Z,35.03
2022-12-15T02:17:20.466Z,35.15
2022-12-15T02:17:51.864Z,35.30
2022-12-15T02:18:23.274Z,35.32
2022-12-15T02:18:54.667Z,35.41
2022-12-15T02:19:26.054Z,34.72
2022-12-15T02:19:57.447Z,35.32
2022-12-15T02:20:28.830Z,35.01
2022-12-15T02:21:00.260Z,35.07
2022-12-15T02:21:31.710Z,35.50
2022-12-15T02:22:03.090Z,35.29
2022-12-15T02:22:34.575Z,35.16
2022-12-15T02:23:05.998Z,35.53
2022-12-15T02:23:37.410Z,35.49
2022-12-15T02:24:08.815Z,35.54
2022-12-15T02:24:40.284Z,35.31
2022-12-15T02:25:11.662Z,34.91
2022-12-15T02:25:43.047Z,35.21
2022-12-15T02:26:14.438Z,35.04
2022-12-15T02:26:45.823Z,35.50
2022-12-15T02:27:17.205Z,35.26
2022-12-15T02:27:48.663Z,34.88
2022-12-15T02:28:20.052Z,35.18
2022-12-15T02:28:51.445Z,35.45
2022-12-15T02:29:22.840Z,35.27
2022-12-15T02:29:54.233Z,35.47
2022-12-15T02:30:25.635Z,35.56
2022-12-15T02:30:57.025Z,35.44
2022-12-15T02:31:28.457Z,34.92
2022-12-15T02:31:59.950Z,35.11
2022-12-15T02:32:31.419Z,35.13
2022-12-15T02:33:02.934Z,35.17
2022-12-15T02:33:34.629Z,35.20
2022-12-15T02:34:06.231Z,34.72
2022-12-15T02:34:37.638Z,35.29
2022-12-15T02:35:09.052Z,34.94
2022-12-15T02:35:40.457Z,35.40
2022-12-15T02:36:11.845Z,34.98
2022-12-15T02:36:43.231Z,35.33
2022-12-15T02:37:14.642Z,35.33
2022-12-15T02:37:46.027Z,35.37
2022-12-15T02:38:21.666Z,35.67
2022-12-15T02:38:53.059Z,35.47
2022-12-15T02:39:24.447Z,35.48
2022-12-15T02:39:55.880Z,35.26
2022-12-15T02:40:27.262Z,35.57
2022-12-15T02:40:58.660Z,35.13
2022-12-15T02:41:30.062Z,35.10
2022-12-15T02:42:01.466Z,35.13
2022-12-15T02:42:32.902Z,34.93
2022-12-15T02:43:04.295Z,35.40
2022-12-15T02:43:35.830Z,35.83
2022-12-15T02:44:07.220Z,35.27
2022-12-15T02:44:38.636Z,35.24
2022-12-15T02:45:10.101Z,35.46
2022-12-15T02:45:41.637Z,35.04
2022-12-15T02:46:13.099Z,35.27
2022-12-15T02:46:44.553Z,35.40
2022-12-15T02:47:15.940Z,35.26
2022-12-15T02:47:47.334Z,35.43
2022-12-15T02:48:18.723Z,35.35
2022-12-15T02:48:50.216Z,35.60
2022-12-15T02:49:21.630Z,35.46
2022-12-15T02:49:53.045Z,35.01
2022-12-15T02:50:24.445Z,35.18
2022-12-15T02:50:55.835Z,35.52
2022-12-15T02:51:27.283Z,35.41
2022-12-15T02:51:58.671Z,35.60
2022-12-15T02:52:30.059Z,35.57
2022-12-15T02:53:01.444Z,35.40
2022-12-15T02:53:33.174Z,35.20
2022-12-15T02:54:04.965Z,35.51
2022-12-15T02:54:36.387Z,35.40
2022-12-15T02:55:07.792Z,35.23
2022-12-15T02:55:39.178Z,35.50
2022-12-15T02:56:10.661Z,35.34
2022-12-15T02:56:42.059Z,35.24
2022-12-15T02:57:13.452Z,35.27
2022-12-15T02:57:44.863Z,35.49
2022-12-15T02:58:16.246Z,35.19
2022-12-15T02:58:47.707Z,35.27
2022-12-15T02:59:19.264Z,35.28
2022-12-15T02:59:50.687Z,35.67
2022-12-15T03:00:22.076Z,35.12
2022-12-15T03:00:53.487Z,35.30
2022-12-15T03:01:24.993Z,35.23
2022-12-15T03:01:56.691Z,35.29
2022-12-15T03:02:28.313Z,35.45
2022-12-15T03:02:59.939Z,35.40
2022-12-15T03:03:31.976Z,35.40
2022-12-15T03:04:03.988Z,35.67
2022-12-15T03:04:35.431Z,35.25
2022-12-15T03:05:06.817Z,35.76
2022-12-15T03:05:38.199Z,35.37
2022-12-15T03:06:09.596Z,35.33
2022-12-15T03:06:40.979Z,35.55
2022-12-15T03:07:12.387Z,35.42
2022-12-15T03:07:43.781Z,35.83
2022-12-15T03:08:15.163Z,35.70
2022-12-15T03:08:46.571Z,35.81
2022-12-15T03:09:17.951Z,35.37
2022-12-15T03:09:49.405Z,35.66
2022-12-15T03:10:20.844Z,35.37
2022-12-15T03:10:52.234Z,35.13
2022-12-15T03:11:23.634Z,35.26
2022-12-15T03:11:55.039Z,35.08
2022-12-15T03:12:26.432Z,35.48
2022-12-15T03:12:57.851Z,35.39
2022-12-15T03:13:29.634Z,35.53
2022-12-15T03:14:01.251Z,35.39
2022-12-15T03:14:32.634Z,35.44
2022-12-15T03:15:04.043Z,35.72
2022-12-15T03:15:35.940Z,35.23
2022-12-15T03:16:07.469Z,35.62
2022-12-15T03:16:38.957Z,35.81
2022-12-15T03:17:10.382Z,35.43
2022-12-15T03:17:41.770Z,35.57
2022-12-15T03:18:13.174Z,35.45
2022-12-15T03:18:44.567Z,35.24
2022-12-15T03:19:15.957Z,35.18
2022-12-15T03:19:47.345Z,35.61
2022-12-15T03:20:21.210Z,35.68
2022-12-15T03:20:52.624Z,35.23
2022-12-15T03:21:24.011Z,35.14
2022-12-15T03:21:55.402Z,35.43
2022-12-15T03:22:26.799Z,35.54
2022-12-15T03:22:58.209Z,35.44
2022-12-15T03:23:29.993Z,35.86
2022-12-15T03:24:01.559Z,35.52
2022-12-15T03:24:32.941Z,35.73
2022-12-15T03:25:04.327Z,35.25
2022-12-15T03:25:35.799Z,35.74
2022-12-15T03:26:07.205Z,35.45
2022-12-15T03:26:38.595Z,35.44
2022-12-15T03:27:10.005Z,35.71
2022-12-15T03:27:41.405Z,35.55
2022-12-15T03:28:12.806Z,35.64
2022-12-15T03:28:44.202Z,35.76
2022-12-15T03:29:15.596Z,35.87
2022-12-15T03:29:46.984Z,35.58
2022-12-15T03:30:18.385Z,35.62
2022-12-15T03:30:50.541Z,35.81
2022-12-15T03:31:22.273Z,35.61
2022-12-15T03:31:53.760Z,35.69
2022-12-15T03:32:25.185Z,35.94
2022-12-15T03:32:56.591Z,35.99
2022-12-15T03:33:28.409Z,35.78
2022-12-15T03:34:00.059Z,35.61
2022-12-15T03:34:31.458Z,35.74
2022-12-15T03:35:02.864Z,35.67
2022-12-15T03:35:34.250Z,35.78
2022-12-15T03:36:05.676Z,35.42
2022-12-15T03:36:37.067Z,35.48
2022-12-15T03:37:08.479Z,35.99
2022-12-15T03:37:39.877Z,35.91
2022-12-15T03:38:11.273Z,35.59
2022-12-15T03:38:42.660Z,35.66
2022-12-15T03:39:14.077Z,35.46
2022-12-15T03:39:45.482Z,35.71
2022-12-15T03:40:16.894Z,35.75
2022-12-15T03:40:48.317Z,35.66
2022-12-15T03:41:19.801Z,35.37
2022-12-15T03:41:51.181Z,35.51
2022-12-15T03:42:22.580Z,36.04
2022-12-15T03:42:53.969Z,35.77
2022-12-15T03:43:25.363Z,36.01
2022-12-15T03:43:56.760Z,35.75
2022-12-15T03:44:28.152Z,35.65
2022-12-15T03:44:59.549Z,36.08
2022-12-15T03:45:31.006Z,35.94
2022-12-15T03:46:02.542Z,35.98
2022-12-15T03:46:34.190Z,35.68
2022-12-15T03:47:05.578Z,36.03
2022-12-15T03:47:36.962Z,35.82
2022-12-15T03:48:08.381Z,35.49
2022-12-15T03:48:39.772Z,35.92
2022-12-15T03:49:11.168Z,35.57
2022-12-15T03:49:42.550Z,35.66
2022-12-15T03:50:13.984Z,35.88
2022-12-15T03:50:45.396Z,36.09
2022-12-15T03:51:16.781Z,36.15
2022-12-15T03:51:48.223Z,35.82
2022-12-15T03:52:19.610Z,35.63
2022-12-15T03:52:51.000Z,36.10
2022-12-15T03:53:22.393Z,35.51
2022-12-15T03:53:53.804Z,35.87
2022-12-15T03:54:25.223Z,35.83
2022-12-15T03:54:56.636Z,35.96
2022-12-15T03:55:28.026Z,35.55
2022-12-15T03:55:59.444Z,36.00
2022-12-15T03:56:30.846Z,35.72
2022-12-15T03:57:02.296Z,36.16
2022-12-15T03:57:33.683Z,36.09
2022-12-15T03:58:05.073Z,35.54
2022-12-15T03:58:36.487Z,36.04
2022-12-15T03:59:07.882Z,35.67
2022-12-15T03:59:39.339Z,35.66
2022-12-15T04:00:10.875Z,36.19
2022-12-15T04:00:42.267Z,35.86
2022-12-15T04:01:13.701Z,36.04
2022-12-15T04:01:45.174Z,35.75
2022-12-15T04:02:16.889Z,36.14
2022-12-15T04:02:50.094Z,36.00
2022-12-15T04:03:22.100Z,35.69
2022-12-15T04:04:00.039Z,36.55
2022-12-15T04:04:32.118Z,35.90
2022-12-15T04:05:03.529Z,35.55
2022-12-15T04:05:34.940Z,35.87
2022-12-15T04:06:06.330Z,35.96
2022-12-15T04:06:37.721Z,35.64
2022-12-15T04:07:09.114Z,36.21
2022-12-15T04:07:40.639Z,36.18
2022-12-15T04:08:12.031Z,36.18
2022-12-15T04:08:43.428Z,36.18
2022-12-15T04:09:14.826Z,36.03
2022-12-15T04:09:46.215Z,36.16
2022-12-15T04:10:17.603Z,35.77
2022-12-15T04:10:48.999Z,35.87
2022-12-15T04:11:20.399Z,36.13
2022-12-15T04:11:51.788Z,36.20
2022-12-15T04:12:23.197Z,35.76
2022-12-15T04:12:54.708Z,35.82
2022-12-15T04:13:26.096Z,36.09
2022-12-15T04:13:57.487Z,35.78
2022-12-15T04:14:28.890Z,35.80
2022-12-15T04:15:00.278Z,36.14
2022-12-15T04:15:31.672Z,36.33
2022-12-15T04:16:03.077Z,36.24
2022-12-15T04:16:34.577Z,36.12
2022-12-15T04:17:06.150Z,36.32
2022-12-15T04:17:37.579Z,35.99
2022-12-15T04:18:09.168Z,36.32
2022-12-15T04:18:40.571Z,35.91
2022-12-15T04:19:11.960Z,35.77
2022-12-15T04:19:43.344Z,36.13
2022-12-15T04:20:14.757Z,35.83
2022-12-15T04:20:46.167Z,36.12
2022-12-15T04:21:21.820Z,35.67
2022-12-15T04:21:53.212Z,36.27
2022-12-15T04:22:24.609Z,36.11
2022-12-15T04:22:56.019Z,36.20
2022-12-15T04:23:27.709Z,36.00
2022-12-15T04:23:59.314Z,36.17
2022-12-15T04:24:30.722Z,36.05
2022-12-15T04:25:02.105Z,36.03
2022-12-15T04:25:33.517Z,35.99
2022-12-15T04:26:04.926Z,36.29
2022-12-15T04:26:36.315Z,36.22
2022-12-15T04:27:07.722Z,36.19
2022-12-15T04:27:39.117Z,35.76
2022-12-15T04:28:10.527Z,35.88
2022-12-15T04:28:41.973Z,36.01
2022-12-15T04:29:13.363Z,36.09
2022-12-15T04:29:44.751Z,35.71
2022-12-15T04:30:16.140Z,35.91
2022-12-15T04:30:47.586Z,36.28
2022-12-15T04:31:19.078Z,36.39
2022-12-15T04:31:50.550Z,36.05
2022-12-15T04:32:21.939Z,36.12
2022-12-15T04:32:53.332Z,36.20
2022-12-15T04:33:30.470Z,36.06
2022-12-15T04:34:02.227Z,36.09
2022-12-15T04:34:33.630Z,36.02
2022-12-15T04:35:05.029Z,36.24
2022-12-15T04:35:36.440Z,36.24
2022-12-15T04:36:07.819Z,36.05
2022-12-15T04:36:39.216Z,36.45
2022-12-15T04:37:10.626Z,35.88
2022-12-15T04:37:42.016Z,36.42
2022-12-15T04:38:13.405Z,36.18
2022-12-15T04:38:50.395Z,35.90
2022-12-15T04:39:22.215Z,36.21
2022-12-15T04:39:53.606Z,35.96
2022-12-15T04:40:25.010Z,36.32
2022-12-15T04:40:56.418Z,35.99
2022-12-15T04:41:27.856Z,36.34
2022-12-15T04:41:59.244Z,36.11
2022-12-15T04:42:30.657Z,35.93
2022-12-15T04:43:02.045Z,36.00
2022-12-15T04:43:33.730Z,35.94
2022-12-15T04:44:05.363Z,35.94
2022-12-15T04:44:36.879Z,36.40
2022-12-15T04:45:08.282Z,35.96
2022-12-15T04:45:39.675Z,36.25
2022-12-15T04:46:11.109Z,36.59
2022-12-15T04:46:42.581Z,36.21
2022-12-15T04:47:14.006Z,36.06
2022-12-15T04:47:45.418Z,36.35
2022-12-15T04:48:16.876Z,36.64
2022-12-15T04:48:48.272Z,36.51
2022-12-15T04:49:19.659Z,36.01
2022-12-15T04:49:51.156Z,35.94
2022-12-15T04:50:22.543Z,36.38
2022-12-15T04:50:53.939Z,36.31
2022-12-15T04:51:25.329Z,35.92
2022-12-15T04:51:56.753Z,36.33
2022-12-15T04:52:28.143Z,36.06
2022-12-15T04:52:59.531Z,36.65
2022-12-15T04:53:31.238Z,36.27
2022-12-15T04:54:02.900Z,36.00
2022-12-15T04:54:34.290Z,36.31
2022-12-15T04:55:05.910Z,36.45
2022-12-15T04:55:37.333Z,36.57
2022-12-15T04:56:10.606Z,36.35
2022-12-15T04:56:45.070Z,36.55
2022-12-15T04:57:16.461Z,36.35
2022-12-15T04:57:47.869Z,35.97
2022-12-15T04:58:19.254Z,35.86
2022-12-15T04:58:50.651Z,36.15
2022-12-15T04:59:22.043Z,35.99
2022-12-15T04:59:53.431Z,36.05
2022-12-15T05:00:24.911Z,36.20
2022-12-15T05:00:56.314Z,36.59
2022-12-15T05:01:27.786Z,36.09
2022-12-15T05:01:59.411Z,35.75
2022-12-15T05:02:31.011Z,36.38
2022-12-15T05:03:02.527Z,36.49
2022-12-15T05:03:34.243Z,36.61
2022-12-15T05:04:06.159Z,36.48
2022-12-15T05:04:37.631Z,36.38
2022-12-15T05:05:09.069Z,36.42
2022-12-15T05:05:40.596Z,36.52
2022-12-15T05:06:11.986Z,36.04
2022-12-15T05:06:43.383Z,36.61
2022-12-15T05:07:14.762Z,36.48
2022-12-15T05:07:46.143Z,36.27
2022-12-15T05:08:17.535Z,36.33
2022-12-15T05:08:50.210Z,35.80
2022-12-15T05:09:21.808Z,36.45
2022-12-15T05:09:53.219Z,36.11
2022-12-15T05:10:24.609Z,36.78
2022-12-15T05:10:56.084Z,36.35
2022-12-15T05:11:27.467Z,36.34
2022-12-15T05:11:58.859Z,36.98
2022-12-15T05:12:30.247Z,36.38
2022-12-15T05:13:01.641Z,36.56
2022-12-15T05:13:33.339Z,35.97
2022-12-15T05:14:05.036Z,36.33
2022-12-15T05:14:36.433Z,36.27
2022-12-15T05:15:07.842Z,36.44
2022-12-15T05:15:39.316Z,36.56
2022-12-15T05:16:10.814Z,36.11
2022-12-15T05:16:42.299Z,36.23
2022-12-15T05:17:13.790Z,36.53
2022-12-15T05:17:45.278Z,36.26
2022-12-15T05:18:16.700Z,36.40
2022-12-15T05:18:48.087Z,36.31
2022-12-15T05:19:19.485Z,36.52
2022-12-15T05:19:50.882Z,36.27
2022-12-15T05:20:22.277Z,36.28
2022-12-15T05:20:53.667Z,36.49
2022-12-15T05:21:25.126Z,36.23
2022-12-15T05:21:56.510Z,36.40
2022-12-15T05:22:27.909Z,36.51
2022-12-15T05:22:59.300Z,36.77
2022-12-15T05:23:30.888Z,36.71
2022-12-15T05:24:02.575Z,36.47
2022-12-15T05:24:33.973Z,36.30
2022-12-15T05:25:05.359Z,36.43
2022-12-15T05:25:36.750Z,36.33
2022-12-15T05:26:08.144Z,36.14
2022-12-15T05:26:39.607Z,36.44
2022-12-15T05:27:10.998Z,36.23
2022-12-15T05:27:42.395Z,36.66
2022-12-15T05:28:13.781Z,36.08
2022-12-15T05:28:45.166Z,36.34
2022-12-15T05:29:16.571Z,36.81
2022-12-15T05:29:47.958Z,36.65
2022-12-15T05:30:19.351Z,36.51
2022-12-15T05:30:50.751Z,36.83
2022-12-15T05:31:22.229Z,36.17
2022-12-15T05:31:53.759Z,36.32
2022-12-15T05:32:25.163Z,36.18
2022-12-15T05:32:56.570Z,36.68
2022-12-15T05:33:28.241Z,36.35
2022-12-15T05:34:05.128Z,36.45
2022-12-15T05:34:37.240Z,36.39
2022-12-15T05:35:08.646Z,36.79
2022-12-15T05:35:40.041Z,36.86
2022-12-15T05:36:11.431Z,36.40
2022-12-15T05:36:42.819Z,36.42
2022-12-15T05:37:14.286Z,36.43
2022-12-15T05:37:45.679Z,36.31
2022-12-15T05:38:17.086Z,36.04
2022-12-15T05:38:48.483Z,36.81
2022-12-15T05:39:21.807Z,36.79
2022-12-15T05:39:53.205Z,36.42
2022-12-15T05:40:24.595Z,36.60
2022-12-15T05:40:56.004Z,36.67
2022-12-15T05:41:27.405Z,36.81
2022-12-15T05:41:58.796Z,36.36
2022-12-15T05:42:30.400Z,36.72
2022-12-15T05:43:01.808Z,36.55
2022-12-15T05:43:33.536Z,36.82
2022-12-15T05:44:05.307Z,36.75
2022-12-15T05:44:36.716Z,36.67
2022-12-15T05:45:08.110Z,36.44
2022-12-15T05:45:39.527Z,36.65
2022-12-15T05:46:10.950Z,36.50
2022-12-15T05:46:42.517Z,36.68
2022-12-15T05:47:13.957Z,36.77
2022-12-15T05:47:45.456Z,36.25
2022-12-15T05:48:16.842Z,36.50
2022-12-15T05:48:48.237Z,36.33
2022-12-15T05:49:19.637Z,36.78
2022-12-15T05:49:51.042Z,36.49
2022-12-15T05:50:22.435Z,36.32
2022-12-15T05:50:53.815Z,36.36
2022-12-15T05:51:25.205Z,36.81
2022-12-15T05:51:56.615Z,36.42
2022-12-15T05:52:28.020Z,37.12
2022-12-15T05:52:59.449Z,36.35
2022-12-15T05:53:31.291Z,36.31
2022-12-15T05:54:03.021Z,36.83
2022-12-15T05:54:34.432Z,36.25
2022-12-15T05:55:05.828Z,36.29
2022-12-15T05:55:37.227Z,36.52
2022-12-15T05:56:08.616Z,36.81
2022-12-15T05:56:40.007Z,36.64
2022-12-15T05:57:11.407Z,37.01
2022-12-15T05:57:42.794Z,36.54
2022-12-15T05:58:14.307Z,36.43
2022-12-15T05:58:45.892Z,36.46
2022-12-15T05:59:17.320Z,36.33
2022-12-15T05:59:48.714Z,36.66
2022-12-15T06:00:20.104Z,36.68
2022-12-15T06:00:51.511Z,36.74
2022-12-15T06:01:22.933Z,36.51
2022-12-15T06:01:54.587Z,36.46
2022-12-15T06:02:26.101Z,37.06
2022-12-15T06:02:57.629Z,36.64
2022-12-15T06:03:29.403Z,36.98
2022-12-15T06:04:01.120Z,36.26
2022-12-15T06:04:32.620Z,36.78
2022-12-15T06:05:04.136Z,36.84
2022-12-15T06:05:35.583Z,36.42
2022-12-15T06:06:06.987Z,36.63
2022-12-15T06:06:38.396Z,36.71
2022-12-15T06:07:09.786Z,36.60
2022-12-15T06:07:41.200Z,36.49
2022-12-15T06:08:12.603Z,36.41
2022-12-15T06:08:44.025Z,36.42
2022-12-15T06:09:15.431Z,36.70
2022-12-15T06:09:46.825Z,37.08
2022-12-15T06:10:18.230Z,37.06
2022-12-15T06:10:49.616Z,37.11
2022-12-15T06:11:21.028Z,36.99
2022-12-15T06:11:52.417Z,36.76
2022-12-15T06:12:23.867Z,36.33
2022-12-15T06:12:55.290Z,36.52
2022-12-15T06:13:26.683Z,36.72
2022-12-15T06:13:58.227Z,36.89
2022-12-15T06:14:29.612Z,36.64
2022-12-15T06:15:01.024Z,36.59
2022-12-15T06:15:32.413Z,36.46
2022-12-15T06:16:03.888Z,36.71
2022-12-15T06:16:38.379Z,36.69
2022-12-15T06:17:14.139Z,36.39
2022-12-15T06:17:45.546Z,36.71
2022-12-15T06:18:21.178Z,36.88
2022-12-15T06:18:52.584Z,36.75
2022-12-15T06:19:25.427Z,36.32
2022-12-15T06:19:56.815Z,36.72
2022-12-15T06:20:28.199Z,36.80
2022-12-15T06:20:59.591Z,36.49
2022-12-15T06:21:30.999Z,37.12
2022-12-15T06:22:02.409Z,36.90
2022-12-15T06:22:33.815Z,36.82
2022-12-15T06:23:05.228Z,36.86
2022-12-15T06:23:36.620Z,36.33
2022-12-15T06:24:08.004Z,37.10
2022-12-15T06:24:39.535Z,36.83
2022-12-15T06:25:10.927Z,36.84
2022-12-15T06:25:42.355Z,36.94
2022-12-15T06:26:13.773Z,36.56
2022-12-15T06:26:45.154Z,37.01
2022-12-15T06:27:16.552Z,36.86
2022-12-15T06:27:47.948Z,36.47
2022-12-15T06:28:19.342Z,36.75
2022-12-15T06:28:50.736Z,36.69
2022-12-15T06:29:22.124Z,36.60
2022-12-15T06:29:53.615Z,36.77
2022-12-15T06:30:25.005Z,36.73
2022-12-15T06:30:56.418Z,36.68
2022-12-15T06:31:27.857Z,36.93
2022-12-15T06:31:59.302Z,36.99
2022-12-15T06:32:30.695Z,36.89
2022-12-15T06:33:02.088Z,37.06
2022-12-15T06:33:33.884Z,37.03
2022-12-15T06:34:05.650Z,36.88
2022-12-15T06:34:37.062Z,36.24
2022-12-15T06:35:08.490Z,37.23
2022-12-15T06:35:39.904Z,37.07
2022-12-15T06:36:11.292Z,36.83
2022-12-15T06:36:42.686Z,36.87
2022-12-15T06:37:14.075Z,37.03
2022-12-15T06:37:45.484Z,36.95
2022-12-15T06:38:16.869Z,36.86
2022-12-15T06:38:50.027Z,36.82
2022-12-15T06:39:21.612Z,36.77
2022-12-15T06:39:53.004Z,36.86
2022-12-15T06:40:24.480Z,36.95
2022-12-15T06:40:55.923Z,36.88
2022-12-15T06:41:27.328Z,37.12
2022-12-15T06:41:58.711Z,36.87
2022-12-15T06:42:30.090Z,36.70
2022-12-15T06:43:01.495Z,36.89
2022-12-15T06:43:33.262Z,36.96
2022-12-15T06:44:05.023Z,36.93
2022-12-15T06:44:36.431Z,37.35
2022-12-15T06:45:07.814Z,37.23
2022-12-15T06:45:39.359Z,36.64
2022-12-15T06:46:10.880Z,36.99
2022-12-15T06:46:42.369Z,37.20